Time;durP1;ratioP1;P1;durP2;ratioP2;P2;SDS_P1;SDS_P2;PMS_P1;PMS_P2;Temp;Humidity;BMP_temperature;BMP_pressure;BME280_temperature;BME280_humidity;BME280_pressure;Samples;Min_cycle;Max_cycle;Signal;HPM_P1;HPM_P2
2022/01/03 00:00:25;;;;;;;16.60;2.50;;;10.70;99.90;;;;;;5062404;28;20222;-53
2022/01/03 00:02:55;;;;;;;13.00;2.40;;;10.70;99.90;;;;;;5062775;28;20228;-54
2022/01/03 00:05:23;;;;;;;13.30;3.87;;;10.70;99.90;;;;;;5060862;28;20733;-54
2022/01/03 00:07:49;;;;;;;13.00;2.50;;;10.70;99.90;;;;;;5062601;28;20609;-54
2022/01/03 00:10:18;;;;;;;15.73;2.60;;;10.70;99.90;;;;;;5063272;28;20612;-53
2022/01/03 00:12:47;;;;;;;12.77;2.17;;;10.70;99.90;;;;;;5062655;28;20839;-53
2022/01/03 00:15:15;;;;;;;6.83;1.93;;;10.70;99.90;;;;;;5062818;28;20202;-52
2022/01/03 00:17:43;;;;;;;13.37;2.50;;;10.70;99.90;;;;;;5058412;28;20264;-53
2022/01/03 00:20:12;;;;;;;9.80;2.77;;;10.70;99.90;;;;;;5060525;28;20246;-53
2022/01/03 00:23:00;;;;;;;14.57;2.90;;;10.70;99.90;;;;;;5059985;28;20259;-54
2022/01/03 00:25:29;;;;;;;11.77;2.00;;;10.70;99.90;;;;;;5068286;28;20210;-53
2022/01/03 00:28:21;;;;;;;16.43;2.63;;;10.60;99.90;;;;;;5062948;28;20207;-52
2022/01/03 00:30:53;;;;;;;11.70;1.90;;;10.60;99.90;;;;;;5063330;28;20205;-54
2022/01/03 00:33:20;;;;;;;14.70;3.80;;;10.60;99.90;;;;;;5061310;28;20216;-53
2022/01/03 00:35:53;;;;;;;15.70;2.73;;;10.60;99.90;;;;;;5059878;28;20206;-54
2022/01/03 00:38:24;;;;;;;12.37;2.33;;;10.60;99.90;;;;;;5061578;28;20211;-53
2022/01/03 00:40:52;;;;;;;14.63;2.47;;;10.50;99.90;;;;;;5061822;28;20641;-54
2022/01/03 00:43:19;;;;;;;12.70;2.17;;;10.50;99.90;;;;;;5061205;28;20204;-55
2022/01/03 00:45:46;;;;;;;14.17;2.40;;;10.50;99.90;;;;;;5061037;28;20203;-53
2022/01/03 00:48:13;;;;;;;14.87;2.23;;;10.50;99.90;;;;;;5061719;28;20515;-53
2022/01/03 00:50:40;;;;;;;19.30;2.97;;;10.60;99.90;;;;;;5059666;28;20655;-53
2022/01/03 00:53:07;;;;;;;14.20;2.37;;;10.60;99.90;;;;;;5056705;28;20207;-53
2022/01/03 00:55:34;;;;;;;19.43;2.77;;;10.60;99.90;;;;;;5077289;28;20744;-53
2022/01/03 00:58:09;;;;;;;10.13;2.57;;;10.50;99.90;;;;;;5061182;28;20253;-53
2022/01/03 01:00:42;;;;;;;15.77;2.57;;;10.50;99.90;;;;;;5061426;28;20207;-54
2022/01/03 01:03:12;;;;;;;12.27;2.57;;;10.60;99.90;;;;;;5061264;28;20209;-53
2022/01/03 01:05:49;;;;;;;12.33;3.20;;;10.60;99.90;;;;;;5060217;28;20210;-53
2022/01/03 01:08:21;;;;;;;21.70;4.43;;;10.60;99.90;;;;;;5060863;28;20759;-53
2022/01/03 01:10:52;;;;;;;14.57;2.57;;;10.60;99.90;;;;;;5061325;28;20207;-53
2022/01/03 01:13:20;;;;;;;13.10;2.60;;;10.60;99.90;;;;;;5062058;28;20202;-55
2022/01/03 01:15:47;;;;;;;15.97;2.30;;;10.60;99.90;;;;;;5059283;28;20243;-53
2022/01/03 01:18:14;;;;;;;17.00;2.70;;;10.60;99.90;;;;;;5059334;28;20207;-53
2022/01/03 01:20:41;;;;;;;12.40;2.40;;;10.60;99.90;;;;;;5055104;28;20235;-54
2022/01/03 01:23:10;;;;;;;12.23;2.40;;;10.60;99.90;;;;;;5060995;28;20672;-54
2022/01/03 01:28:10;;;;;;;11.10;2.60;;;10.60;99.90;;;;;;5061561;28;20249;-55
2022/01/03 01:30:43;;;;;;;16.87;2.50;;;10.60;99.90;;;;;;5061208;28;20253;-53
2022/01/03 01:33:17;;;;;;;16.70;3.00;;;10.60;99.90;;;;;;5060231;28;20230;-54
2022/01/03 01:36:05;;;;;;;12.27;2.63;;;10.60;99.90;;;;;;5059494;28;20217;-53
2022/01/03 01:38:38;;;;;;;14.57;2.70;;;10.60;99.90;;;;;;5061189;28;20233;-54
2022/01/03 01:41:07;;;;;;;21.20;2.83;;;10.60;99.90;;;;;;5059992;28;20203;-53
2022/01/03 01:43:33;;;;;;;10.57;2.40;;;10.60;99.90;;;;;;5060558;28;20285;-54
2022/01/03 01:46:09;;;;;;;12.90;2.77;;;10.60;99.90;;;;;;5061191;28;20230;-53
2022/01/03 01:48:38;;;;;;;14.50;2.53;;;10.50;99.90;;;;;;5060345;28;20280;-55
2022/01/03 01:51:08;;;;;;;19.90;3.40;;;10.50;99.90;;;;;;5059346;28;20256;-53
2022/01/03 01:53:48;;;;;;;15.67;2.63;;;10.40;99.90;;;;;;5060559;28;20287;-54
2022/01/03 01:56:23;;;;;;;14.43;2.77;;;10.40;99.90;;;;;;5060295;28;20308;-52
2022/01/03 01:59:09;;;;;;;15.83;2.47;;;10.40;99.90;;;;;;5060892;28;20230;-53
2022/01/03 02:01:49;;;;;;;10.80;2.60;;;10.40;99.90;;;;;;5061076;28;20257;-54
2022/01/03 02:04:31;;;;;;;17.40;2.50;;;10.40;99.90;;;;;;5058318;28;20208;-54
2022/01/03 02:07:40;;;;;;;18.10;2.03;;;10.40;99.90;;;;;;5059977;28;20294;-53
2022/01/03 02:10:10;;;;;;;12.87;2.20;;;10.40;99.90;;;;;;5059612;28;20569;-53
2022/01/03 02:12:43;;;;;;;14.37;2.77;;;10.30;99.90;;;;;;5060523;28;20578;-52
2022/01/03 02:15:14;;;;;;;18.13;2.53;;;10.40;99.90;;;;;;5060116;28;20222;-53
2022/01/03 02:17:44;;;;;;;17.37;3.07;;;10.30;99.90;;;;;;5060051;28;20309;-53
2022/01/03 02:20:16;;;;;;;16.37;2.50;;;10.30;99.90;;;;;;5058889;28;20568;-54
2022/01/03 02:22:44;;;;;;;13.33;2.60;;;10.30;99.90;;;;;;5057645;28;20603;-53
2022/01/03 02:25:12;;;;;;;14.13;2.60;;;10.30;99.90;;;;;;5060500;28;20203;-56
2022/01/03 02:27:41;;;;;;;11.80;2.47;;;10.30;99.90;;;;;;5056962;28;21103;-53
2022/01/03 02:30:11;;;;;;;11.17;2.20;;;10.30;99.90;;;;;;5059541;28;20242;-54
2022/01/03 02:32:38;;;;;;;12.13;2.40;;;10.30;99.90;;;;;;5059706;28;20259;-54
2022/01/03 02:35:06;;;;;;;19.80;2.70;;;10.30;99.90;;;;;;5058575;28;20659;-53
2022/01/03 02:37:33;;;;;;;11.37;2.40;;;10.30;99.90;;;;;;5058007;28;20278;-53
2022/01/03 02:40:00;;;;;;;12.70;2.27;;;10.30;99.90;;;;;;5059934;28;20225;-53
2022/01/03 02:42:29;;;;;;;14.97;1.93;;;10.30;99.90;;;;;;5059856;28;20197;-53
2022/01/03 02:45:00;;;;;;;16.40;3.47;;;10.30;99.90;;;;;;5059355;28;20221;-54
2022/01/03 02:47:27;;;;;;;15.13;2.03;;;10.30;99.90;;;;;;5059972;28;20583;-53
2022/01/03 02:49:54;;;;;;;8.80;1.93;;;10.30;99.90;;;;;;5058977;28;20993;-54
2022/01/03 02:52:21;;;;;;;11.13;2.57;;;10.30;99.90;;;;;;5060206;28;20245;-53
2022/01/03 02:54:49;;;;;;;12.17;2.87;;;10.30;99.90;;;;;;5074883;28;20665;-54
2022/01/03 02:57:22;;;;;;;12.70;2.43;;;10.30;99.90;;;;;;5057566;28;20305;-55
2022/01/03 02:59:57;;;;;;;17.63;3.27;;;10.20;99.90;;;;;;5057142;28;20243;-54
2022/01/03 03:02:26;;;;;;;16.13;2.83;;;10.30;99.90;;;;;;5059513;28;20202;-53
2022/01/03 03:05:01;;;;;;;14.27;2.83;;;10.30;99.90;;;;;;5054507;28;20225;-52
2022/01/03 03:07:29;;;;;;;17.23;2.40;;;10.30;99.90;;;;;;5058816;28;20670;-53
2022/01/03 03:09:57;;;;;;;18.30;2.63;;;10.20;99.90;;;;;;5056758;28;20703;-53
2022/01/03 03:12:25;;;;;;;17.43;3.93;;;10.20;99.90;;;;;;5059734;28;20203;-53
2022/01/03 03:14:52;;;;;;;18.53;3.13;;;10.20;99.90;;;;;;5060546;28;20207;-54
2022/01/03 03:17:19;;;;;;;21.80;3.23;;;10.30;99.90;;;;;;5060065;28;20581;-53
2022/01/03 03:19:50;;;;;;;11.97;2.53;;;10.30;99.90;;;;;;5057906;28;20264;-54
2022/01/03 03:22:17;;;;;;;11.97;2.40;;;10.30;99.90;;;;;;5059069;28;20733;-53
2022/01/03 03:24:44;;;;;;;22.07;2.60;;;10.30;99.90;;;;;;5057953;28;20206;-54
2022/01/03 03:27:12;;;;;;;20.47;3.03;;;10.40;99.90;;;;;;5054513;28;20254;-53
2022/01/03 03:29:48;;;;;;;9.77;2.27;;;10.40;99.90;;;;;;5058207;28;20243;-54
2022/01/03 03:32:16;;;;;;;19.80;3.60;;;10.40;99.90;;;;;;5059542;28;20217;-53
2022/01/03 03:34:45;;;;;;;15.63;3.13;;;10.40;99.90;;;;;;5058074;28;20244;-53
2022/01/03 03:37:12;;;;;;;17.57;3.20;;;10.40;99.90;;;;;;5059683;28;20216;-54
2022/01/03 03:39:40;;;;;;;13.83;3.33;;;10.50;99.90;;;;;;5059733;28;21099;-53
2022/01/03 03:42:07;;;;;;;20.33;3.50;;;10.50;99.90;;;;;;5055967;28;20242;-53
2022/01/03 03:44:35;;;;;;;16.43;3.53;;;10.50;99.90;;;;;;5059244;28;20251;-54
2022/01/03 03:47:04;;;;;;;20.63;3.17;;;10.40;99.90;;;;;;5059537;28;20648;-53
2022/01/03 03:49:32;;;;;;;18.27;3.17;;;10.40;99.90;;;;;;5055710;28;20288;-53
2022/01/03 03:52:01;;;;;;;15.83;3.20;;;10.40;99.90;;;;;;5059470;28;20614;-53
2022/01/03 03:54:29;;;;;;;17.07;3.30;;;10.40;99.90;;;;;;5053218;28;20250;-53
2022/01/03 03:56:57;;;;;;;23.50;3.53;;;10.40;99.90;;;;;;5059421;28;20869;-54
2022/01/03 03:59:25;;;;;;;14.10;2.70;;;10.40;99.90;;;;;;5058949;28;20196;-54
2022/01/03 04:01:54;;;;;;;16.27;3.67;;;10.40;99.90;;;;;;5056879;28;20732;-53
2022/01/03 04:04:21;;;;;;;19.23;3.60;;;10.40;99.90;;;;;;5056556;28;20243;-54
2022/01/03 04:06:49;;;;;;;16.77;3.00;;;10.40;99.90;;;;;;5058146;28;20256;-54
2022/01/03 04:09:16;;;;;;;20.27;4.43;;;10.50;99.90;;;;;;5058436;28;20266;-53
2022/01/03 04:11:43;;;;;;;14.47;2.67;;;10.50;99.90;;;;;;5060612;28;20257;-54
2022/01/03 04:14:10;;;;;;;14.60;3.60;;;10.40;99.90;;;;;;5062150;28;20208;-54
2022/01/03 04:16:38;;;;;;;15.47;2.73;;;10.50;99.90;;;;;;5062003;28;21001;-53
2022/01/03 04:19:05;;;;;;;11.73;2.73;;;10.40;99.90;;;;;;5057196;28;20215;-54
2022/01/03 04:21:32;;;;;;;17.63;3.63;;;10.40;99.90;;;;;;5061940;28;20207;-53
2022/01/03 04:23:59;;;;;;;14.93;3.50;;;10.40;99.90;;;;;;5057721;28;20207;-52
2022/01/03 04:26:26;;;;;;;10.73;2.53;;;10.40;99.90;;;;;;5060731;28;20239;-52
2022/01/03 04:28:53;;;;;;;21.10;4.53;;;10.40;99.90;;;;;;5058045;28;20737;-53
2022/01/03 04:31:20;;;;;;;14.33;3.37;;;10.40;99.90;;;;;;5061649;28;20716;-54
2022/01/03 04:33:47;;;;;;;9.43;2.77;;;10.40;99.90;;;;;;5057466;28;20215;-55
2022/01/03 04:36:14;;;;;;;13.73;3.17;;;10.30;99.90;;;;;;5075495;28;20311;-56
2022/01/03 04:38:41;;;;;;;18.60;2.90;;;10.30;99.90;;;;;;5062044;28;20221;-54
2022/01/03 04:41:12;;;;;;;12.97;3.03;;;10.30;99.90;;;;;;5061544;28;20237;-53
2022/01/03 04:43:41;;;;;;;23.30;3.60;;;10.40;99.90;;;;;;5058200;28;20525;-53
2022/01/03 04:46:11;;;;;;;16.37;3.50;;;10.40;99.90;;;;;;5062867;28;20616;-54
2022/01/03 04:48:40;;;;;;;16.57;3.73;;;10.40;99.90;;;;;;5061574;28;20206;-55
2022/01/03 04:51:08;;;;;;;14.10;3.63;;;10.40;99.90;;;;;;5059982;28;20250;-55
2022/01/03 04:53:39;;;;;;;18.40;3.40;;;10.30;99.90;;;;;;5061412;28;20205;-53
2022/01/03 04:56:14;;;;;;;14.63;3.23;;;10.30;99.90;;;;;;5055371;28;20613;-54
2022/01/03 04:58:42;;;;;;;12.87;2.93;;;10.30;99.90;;;;;;5061660;28;20211;-54
2022/01/03 05:01:09;;;;;;;14.17;3.40;;;10.30;99.90;;;;;;5061593;28;20620;-54
2022/01/03 05:03:36;;;;;;;23.00;4.17;;;10.30;99.90;;;;;;5061540;28;20207;-54
2022/01/03 05:06:03;;;;;;;16.53;3.30;;;10.30;99.90;;;;;;5060600;28;20244;-55
2022/01/03 05:08:32;;;;;;;12.23;3.90;;;10.30;99.90;;;;;;5062086;28;21039;-54
2022/01/03 05:11:02;;;;;;;15.27;3.27;;;10.40;99.90;;;;;;5061019;28;20274;-53
2022/01/03 05:13:31;;;;;;;18.47;3.20;;;10.30;99.90;;;;;;5061817;28;20602;-55
2022/01/03 05:15:59;;;;;;;15.70;3.50;;;10.30;99.90;;;;;;5056110;28;20200;-53
2022/01/03 05:18:27;;;;;;;19.63;3.00;;;10.30;99.90;;;;;;5059948;28;20646;-54
2022/01/03 05:20:54;;;;;;;25.30;3.57;;;10.30;99.90;;;;;;5059623;28;20596;-54
2022/01/03 05:23:21;;;;;;;20.97;3.40;;;10.40;99.90;;;;;;5060515;28;20238;-53
2022/01/03 05:25:48;;;;;;;19.37;3.93;;;10.40;99.90;;;;;;5060173;28;20849;-54
2022/01/03 05:28:15;;;;;;;23.07;3.90;;;10.40;99.90;;;;;;5060913;28;20293;-54
2022/01/03 05:30:42;;;;;;;14.77;3.40;;;10.40;99.90;;;;;;5061001;28;20602;-54
2022/01/03 05:33:09;;;;;;;16.90;3.77;;;10.40;99.90;;;;;;5061267;28;20212;-54
2022/01/03 05:35:36;;;;;;;11.40;2.80;;;10.40;99.90;;;;;;5058699;28;20257;-53
2022/01/03 05:38:03;;;;;;;12.80;3.10;;;10.40;99.90;;;;;;5058498;28;20220;-53
2022/01/03 05:40:30;;;;;;;18.60;3.47;;;10.40;99.90;;;;;;5060526;28;20236;-53
2022/01/03 05:42:57;;;;;;;17.03;3.17;;;10.40;99.90;;;;;;5060871;28;20205;-53
2022/01/03 05:45:25;;;;;;;18.20;2.83;;;10.40;99.90;;;;;;5058923;28;20229;-54
2022/01/03 05:47:53;;;;;;;10.70;3.03;;;10.40;99.90;;;;;;5061735;28;20200;-54
2022/01/03 05:50:19;;;;;;;19.47;3.40;;;10.30;99.90;;;;;;5059418;28;20886;-56
2022/01/03 05:52:46;;;;;;;17.73;3.60;;;10.40;99.90;;;;;;5060503;28;20702;-53
2022/01/03 05:55:13;;;;;;;14.57;3.70;;;10.40;99.90;;;;;;5060211;28;20218;-54
2022/01/03 05:57:40;;;;;;;20.77;3.57;;;10.40;99.90;;;;;;5059677;28;20256;-54
2022/01/03 06:00:11;;;;;;;10.20;2.63;;;10.40;99.90;;;;;;5060882;28;20201;-53
2022/01/03 06:02:41;;;;;;;13.40;3.03;;;10.40;99.90;;;;;;5060163;28;20204;-55
2022/01/03 06:05:17;;;;;;;20.90;3.13;;;10.50;99.90;;;;;;5058357;28;20200;-53
2022/01/03 06:07:44;;;;;;;10.83;2.20;;;10.50;99.90;;;;;;5060031;28;20639;-53
2022/01/03 06:10:16;;;;;;;13.43;2.37;;;10.50;99.90;;;;;;5060296;28;20253;-54
2022/01/03 06:12:45;;;;;;;14.83;3.23;;;10.40;99.90;;;;;;5060393;28;20265;-55
2022/01/03 06:15:14;;;;;;;9.20;2.60;;;10.40;99.90;;;;;;5060336;28;20219;-55
2022/01/03 06:17:43;;;;;;;11.90;2.63;;;10.40;99.90;;;;;;5060098;28;20228;-55
2022/01/03 06:20:10;;;;;;;12.53;2.80;;;10.40;99.90;;;;;;5064802;28;20204;-53
2022/01/03 06:22:40;;;;;;;16.10;3.00;;;10.40;99.90;;;;;;5060051;28;20272;-54
2022/01/03 06:25:08;;;;;;;16.00;2.40;;;10.30;99.90;;;;;;5061789;28;20533;-53
2022/01/03 06:27:37;;;;;;;11.07;2.47;;;10.30;99.90;;;;;;5060292;28;20610;-54
2022/01/03 06:30:08;;;;;;;12.83;3.03;;;10.20;99.90;;;;;;5060614;28;20247;-54
2022/01/03 06:32:36;;;;;;;11.13;3.63;;;10.20;99.90;;;;;;5058970;28;20209;-53
2022/01/03 06:35:04;;;;;;;13.70;3.20;;;10.20;99.90;;;;;;5058916;28;20208;-53
2022/01/03 06:37:32;;;;;;;10.20;2.53;;;10.30;99.90;;;;;;5059677;28;20284;-54
2022/01/03 06:39:59;;;;;;;14.23;2.37;;;10.30;99.90;;;;;;5056261;28;20210;-55
2022/01/03 06:42:26;;;;;;;19.13;2.87;;;10.30;99.90;;;;;;5058234;28;20659;-54
2022/01/03 06:44:53;;;;;;;8.53;2.30;;;10.30;99.90;;;;;;5059895;28;20284;-56
2022/01/03 06:47:20;;;;;;;12.83;2.60;;;10.30;99.90;;;;;;5060439;28;20233;-54
2022/01/03 06:49:47;;;;;;;13.00;2.40;;;10.30;99.90;;;;;;5057395;28;20210;-54
2022/01/03 06:52:14;;;;;;;15.10;2.90;;;10.30;99.90;;;;;;5059384;28;20235;-53
2022/01/03 06:54:41;;;;;;;12.50;3.00;;;10.30;99.90;;;;;;5059611;28;20296;-54
2022/01/03 06:57:08;;;;;;;19.27;3.53;;;10.30;99.90;;;;;;5060262;28;20207;-54
2022/01/03 06:59:35;;;;;;;18.77;3.27;;;10.30;99.90;;;;;;5059716;28;20219;-55
2022/01/03 07:02:04;;;;;;;11.50;3.27;;;10.30;99.90;;;;;;5054821;28;20299;-54
2022/01/03 07:04:31;;;;;;;14.27;2.43;;;10.30;99.90;;;;;;5052242;28;20200;-54
2022/01/03 07:07:04;;;;;;;14.40;2.80;;;10.30;99.90;;;;;;5059129;28;20201;-54
2022/01/03 07:09:31;;;;;;;17.67;3.03;;;10.30;99.90;;;;;;5058968;28;20232;-54
2022/01/03 07:11:58;;;;;;;9.50;2.80;;;10.30;99.90;;;;;;5058127;28;20298;-55
2022/01/03 07:19:52;;;;;;;11.57;2.20;;;10.30;99.90;;;;;;5058091;28;20212;-54
2022/01/03 07:22:19;;;;;;;11.73;2.70;;;10.30;99.90;;;;;;5058593;28;20243;-54
2022/01/03 07:24:47;;;;;;;14.10;3.30;;;10.30;99.90;;;;;;5058452;28;20207;-53
2022/01/03 07:27:14;;;;;;;24.47;3.00;;;10.30;99.90;;;;;;5059328;28;20296;-54
2022/01/03 07:29:43;;;;;;;13.90;2.77;;;10.30;99.90;;;;;;5058677;28;20660;-55
2022/01/03 07:32:10;;;;;;;15.70;2.80;;;10.40;99.90;;;;;;5059712;28;20211;-55
2022/01/03 07:34:37;;;;;;;11.20;2.90;;;10.30;99.90;;;;;;5057457;28;20209;-54
2022/01/03 07:37:04;;;;;;;11.47;2.70;;;10.40;99.90;;;;;;5058867;28;20201;-55
2022/01/03 07:39:31;;;;;;;14.77;2.63;;;10.40;99.90;;;;;;5058495;28;20216;-54
2022/01/03 07:41:58;;;;;;;10.00;3.03;;;10.40;99.90;;;;;;5057467;28;20292;-54
2022/01/03 07:44:26;;;;;;;14.83;3.50;;;10.40;99.90;;;;;;5061469;28;20256;-53
2022/01/03 07:46:54;;;;;;;16.23;2.57;;;10.40;99.90;;;;;;5063097;28;20230;-54
2022/01/03 07:49:21;;;;;;;10.03;3.33;;;10.40;99.90;;;;;;5060941;28;20220;-54
2022/01/03 07:51:49;;;;;;;14.10;2.73;;;10.40;99.90;;;;;;5069248;28;20195;-56
2022/01/03 07:54:16;;;;;;;9.67;2.30;;;10.40;99.90;;;;;;5063747;28;20202;-55
2022/01/03 07:56:42;;;;;;;15.03;3.20;;;10.40;99.90;;;;;;5062865;28;20207;-54
2022/01/03 07:59:10;;;;;;;9.30;2.80;;;10.50;99.90;;;;;;5062536;28;20277;-55
2022/01/03 08:01:40;;;;;;;9.03;2.90;;;10.50;99.90;;;;;;5062648;28;20204;-55
2022/01/03 08:04:08;;;;;;;11.67;2.77;;;10.50;99.90;;;;;;5061194;28;20995;-56
2022/01/03 08:06:53;;;;;;;11.60;3.03;;;10.60;99.90;;;;;;5062120;28;20203;-54
2022/01/03 08:09:20;;;;;;;7.93;2.77;;;10.50;99.90;;;;;;5062969;28;20268;-56
2022/01/03 08:11:47;;;;;;;13.63;2.57;;;10.50;99.90;;;;;;5062615;28;20212;-55
2022/01/03 08:14:14;;;;;;;9.97;2.50;;;10.50;99.90;;;;;;5062281;28;20221;-55
2022/01/03 08:16:40;;;;;;;8.13;2.37;;;10.50;99.90;;;;;;5063095;28;20204;-53
2022/01/03 08:19:07;;;;;;;10.50;2.50;;;10.50;99.90;;;;;;5061170;28;20257;-55
2022/01/03 08:21:34;;;;;;;8.07;2.53;;;10.50;99.90;;;;;;5060545;28;20202;-53
2022/01/03 08:24:01;;;;;;;15.00;2.37;;;10.40;99.90;;;;;;5058350;28;20240;-54
2022/01/03 08:26:28;;;;;;;12.07;2.60;;;10.40;99.90;;;;;;5061860;28;20197;-53
2022/01/03 08:28:55;;;;;;;16.73;3.00;;;10.40;99.90;;;;;;5058310;28;20299;-55
2022/01/03 08:31:22;;;;;;;9.33;2.10;;;10.40;99.90;;;;;;5062971;28;20296;-56
2022/01/03 08:33:49;;;;;;;10.80;3.67;;;10.40;99.90;;;;;;5057896;28;20201;-55
2022/01/03 08:36:16;;;;;;;6.63;2.57;;;10.40;99.90;;;;;;5060845;28;20214;-55
2022/01/03 08:38:43;;;;;;;11.87;3.13;;;10.40;99.90;;;;;;5058492;28;20216;-55
2022/01/03 08:41:10;;;;;;;12.50;3.57;;;10.50;99.90;;;;;;5061761;28;20197;-54
2022/01/03 08:43:37;;;;;;;11.80;3.63;;;10.50;99.90;;;;;;5061330;28;20207;-54
2022/01/03 08:46:04;;;;;;;13.70;2.73;;;10.40;99.90;;;;;;5060858;28;20201;-54
2022/01/03 08:48:31;;;;;;;11.20;2.47;;;10.50;99.90;;;;;;5061554;28;20205;-54
2022/01/03 08:50:59;;;;;;;15.63;4.00;;;10.40;99.90;;;;;;5061013;28;20196;-54
2022/01/03 08:53:32;;;;;;;15.40;2.93;;;10.50;99.90;;;;;;5060518;28;20201;-53
2022/01/03 08:55:59;;;;;;;15.23;3.70;;;10.50;99.90;;;;;;5060493;28;20247;-54
2022/01/03 08:58:26;;;;;;;14.93;2.80;;;10.50;99.90;;;;;;5060793;28;20212;-53
2022/01/03 09:00:53;;;;;;;15.43;3.37;;;10.50;99.90;;;;;;5061168;28;20210;-54
2022/01/03 09:03:20;;;;;;;12.90;3.47;;;10.50;99.90;;;;;;5059241;28;20206;-54
2022/01/03 09:05:49;;;;;;;11.90;2.40;;;10.50;99.90;;;;;;5060990;28;20282;-54
2022/01/03 09:08:17;;;;;;;10.67;3.13;;;10.60;99.90;;;;;;5061539;28;20256;-55
2022/01/03 09:10:44;;;;;;;13.50;3.17;;;10.60;99.90;;;;;;5061455;28;20541;-54
2022/01/03 09:13:11;;;;;;;9.83;2.67;;;10.60;99.90;;;;;;5061660;28;20296;-55
2022/01/03 09:15:40;;;;;;;14.33;3.07;;;10.60;99.90;;;;;;5061112;28;20293;-53
2022/01/03 09:18:10;;;;;;;14.33;3.10;;;10.60;99.90;;;;;;5060913;28;20214;-54
2022/01/03 09:20:37;;;;;;;16.03;2.93;;;10.60;99.90;;;;;;5054910;28;20334;-55
2022/01/03 09:23:11;;;;;;;12.33;3.13;;;10.70;99.90;;;;;;5058970;28;20240;-55
2022/01/03 09:30:51;;;;;;;18.20;3.60;;;10.80;99.90;;;;;;5060313;28;20287;-53
2022/01/03 09:33:19;;;;;;;10.70;2.97;;;10.80;99.90;;;;;;5054987;28;20222;-54
2022/01/03 09:35:51;;;;;;;16.33;3.40;;;10.80;99.90;;;;;;5059501;28;20664;-55
2022/01/03 09:38:18;;;;;;;8.97;2.47;;;10.80;99.90;;;;;;5060193;28;20247;-55
2022/01/03 09:40:46;;;;;;;10.00;2.63;;;10.80;99.90;;;;;;5061042;28;20321;-53
2022/01/03 09:43:17;;;;;;;9.00;2.60;;;10.90;99.90;;;;;;5060918;28;20206;-54
2022/01/03 09:45:47;;;;;;;16.47;3.20;;;10.90;99.90;;;;;;5060719;28;20199;-52
2022/01/03 09:48:15;;;;;;;8.53;2.53;;;10.90;99.90;;;;;;5059991;28;20203;-55
2022/01/03 09:50:44;;;;;;;16.87;3.27;;;11.00;99.90;;;;;;5058255;28;20206;-54
2022/01/03 09:53:12;;;;;;;10.93;2.97;;;11.00;99.90;;;;;;5060433;28;20208;-54
2022/01/03 09:55:40;;;;;;;10.90;2.87;;;11.10;99.90;;;;;;5059966;28;20207;-53
2022/01/03 09:58:10;;;;;;;14.30;2.67;;;11.10;99.90;;;;;;5061006;28;20209;-54
2022/01/03 10:00:37;;;;;;;11.77;2.60;;;11.10;99.90;;;;;;5059889;28;20237;-54
2022/01/03 10:03:04;;;;;;;11.93;3.03;;;11.10;99.90;;;;;;5043061;28;20265;-53
2022/01/03 10:05:32;;;;;;;16.23;3.60;;;11.20;99.90;;;;;;5059041;28;20548;-54
2022/01/03 10:07:59;;;;;;;12.97;2.47;;;11.20;99.90;;;;;;5055645;28;20210;-53
2022/01/03 10:10:28;;;;;;;12.77;2.93;;;11.20;99.90;;;;;;5059943;28;20208;-53
2022/01/03 10:12:55;;;;;;;15.13;3.17;;;11.20;99.90;;;;;;5060716;28;20419;-53
2022/01/03 10:15:22;;;;;;;18.73;2.40;;;11.20;99.90;;;;;;5058925;28;20260;-53
2022/01/03 10:17:49;;;;;;;17.80;3.13;;;11.20;99.90;;;;;;5060703;28;20218;-53
2022/01/03 10:20:16;;;;;;;17.30;4.00;;;11.20;99.90;;;;;;5058554;28;20227;-54
2022/01/03 10:22:43;;;;;;;18.77;3.47;;;11.20;99.90;;;;;;5059512;28;20206;-53
2022/01/03 10:25:16;;;;;;;15.70;2.90;;;11.20;99.90;;;;;;5059964;28;20200;-54
2022/01/03 10:27:54;;;;;;;15.73;3.20;;;11.10;99.90;;;;;;5059723;28;20600;-53
2022/01/03 10:30:53;;;;;;;16.37;3.70;;;11.10;99.90;;;;;;5059155;28;20261;-54
2022/01/03 10:33:22;;;;;;;18.20;2.87;;;11.10;99.90;;;;;;5030870;28;20585;-55
2022/01/03 10:35:58;;;;;;;9.57;2.27;;;11.10;99.90;;;;;;5055494;28;20211;-55
2022/01/03 10:38:37;;;;;;;9.50;2.93;;;11.10;99.90;;;;;;5059148;28;20210;-55
2022/01/03 10:41:16;;;;;;;10.80;2.20;;;11.10;99.90;;;;;;5059719;28;20286;-53
2022/01/03 10:43:44;;;;;;;9.53;2.90;;;11.00;99.90;;;;;;5056674;28;20192;-53
2022/01/03 10:46:21;;;;;;;15.27;2.97;;;11.00;99.90;;;;;;5060816;28;20258;-54
2022/01/03 10:48:49;;;;;;;16.97;3.23;;;11.00;99.90;;;;;;5058940;28;20298;-54
2022/01/03 10:51:27;;;;;;;14.50;2.57;;;11.00;99.90;;;;;;5052880;28;20211;-54
2022/01/03 10:53:55;;;;;;;14.63;3.23;;;11.00;99.90;;;;;;5059916;28;20250;-55
2022/01/03 10:56:28;;;;;;;15.97;3.07;;;11.10;99.90;;;;;;5059329;28;20310;-56
2022/01/03 10:59:23;;;;;;;10.43;2.20;;;11.00;99.90;;;;;;5059084;28;20246;-54
2022/01/03 11:02:01;;;;;;;13.33;2.13;;;11.00;99.90;;;;;;5055829;28;20214;-53
2022/01/03 11:04:56;;;;;;;13.03;2.37;;;11.00;99.90;;;;;;5058427;28;20734;-53
2022/01/03 11:13:14;;;;;;;12.83;2.90;;;11.00;99.90;;;;;;5059531;28;20347;-54
2022/01/03 11:15:42;;;;;;;16.33;4.13;;;11.00;99.90;;;;;;5056976;28;20245;-53
2022/01/03 11:18:13;;;;;;;10.17;2.53;;;11.00;99.90;;;;;;5058649;28;20250;-53
2022/01/03 11:20:41;;;;;;;10.90;2.97;;;11.00;99.90;;;;;;5062258;28;20753;-54
2022/01/03 11:23:08;;;;;;;14.63;3.00;;;11.00;99.90;;;;;;5063409;28;20242;-53
2022/01/03 11:25:36;;;;;;;15.23;3.03;;;11.00;99.90;;;;;;5060132;28;20195;-53
2022/01/03 11:28:04;;;;;;;9.13;2.17;;;11.10;99.90;;;;;;5061302;28;20253;-54
2022/01/03 11:30:32;;;;;;;10.60;2.40;;;11.10;99.90;;;;;;5063718;28;20215;-54
2022/01/03 11:33:00;;;;;;;10.17;2.70;;;11.10;99.90;;;;;;5063656;28;20206;-53
2022/01/03 11:35:32;;;;;;;12.47;2.30;;;11.10;99.90;;;;;;5061838;28;20212;-54
2022/01/03 11:38:00;;;;;;;10.00;2.70;;;11.00;99.90;;;;;;5062715;28;20211;-54
2022/01/03 11:40:28;;;;;;;10.70;2.43;;;11.10;99.90;;;;;;5060954;28;20244;-53
2022/01/03 11:42:56;;;;;;;12.33;2.77;;;11.10;99.90;;;;;;5063040;28;20206;-54
2022/01/03 11:45:23;;;;;;;9.00;2.30;;;11.10;99.90;;;;;;5063376;28;20598;-53
2022/01/03 11:47:51;;;;;;;14.10;2.93;;;11.10;99.90;;;;;;5063569;28;20200;-54
2022/01/03 11:50:18;;;;;;;11.47;3.10;;;11.10;99.90;;;;;;5061066;28;20243;-54
2022/01/03 11:52:46;;;;;;;8.07;2.60;;;11.10;99.90;;;;;;5062157;28;20214;-55
2022/01/03 11:55:15;;;;;;;6.87;2.03;;;11.10;99.90;;;;;;5063081;28;20341;-53
2022/01/03 11:58:09;;;;;;;10.70;2.53;;;11.10;99.90;;;;;;5078140;28;20215;-53
2022/01/03 12:03:54;;;;;;;11.47;2.43;;;11.10;99.90;;;;;;5062004;28;20651;-54
2022/01/03 12:06:40;;;;;;;11.57;2.40;;;11.20;99.90;;;;;;5061245;28;20249;-54
2022/01/03 12:09:10;;;;;;;10.77;2.60;;;11.10;99.90;;;;;;5061915;28;20260;-53
2022/01/03 12:11:53;;;;;;;8.00;2.70;;;11.10;99.90;;;;;;5062702;28;20242;-54
2022/01/03 12:14:22;;;;;;;9.30;2.70;;;11.10;99.90;;;;;;5058224;28;20239;-56
2022/01/03 12:16:54;;;;;;;10.63;2.30;;;11.00;99.90;;;;;;5062848;28;20282;-53
2022/01/03 12:19:37;;;;;;;13.53;2.60;;;11.00;99.90;;;;;;5060399;28;20328;-53
2022/01/03 12:22:22;;;;;;;8.73;2.90;;;11.00;99.90;;;;;;5062144;28;20253;-53
2022/01/03 12:25:05;;;;;;;11.37;2.53;;;11.00;99.90;;;;;;5063003;28;20211;-54
2022/01/03 12:27:35;;;;;;;7.97;1.80;;;11.00;99.90;;;;;;5059109;28;20253;-55
2022/01/03 12:30:06;;;;;;;12.43;3.10;;;11.10;99.90;;;;;;5061334;28;20242;-55
2022/01/03 12:32:45;;;;;;;10.87;2.60;;;11.10;99.90;;;;;;5059912;28;20291;-54
2022/01/03 12:35:19;;;;;;;8.90;2.37;;;11.10;99.90;;;;;;5059812;28;20686;-54
2022/01/03 12:37:52;;;;;;;12.33;2.83;;;11.00;99.90;;;;;;5060905;28;20259;-56
2022/01/03 12:40:27;;;;;;;9.90;2.13;;;11.10;99.90;;;;;;5061913;28;20848;-55
2022/01/03 12:42:59;;;;;;;9.73;2.40;;;11.00;99.90;;;;;;5061116;28;20290;-55
2022/01/03 12:45:25;;;;;;;9.07;2.50;;;11.00;99.90;;;;;;5062756;28;20207;-54
2022/01/03 12:47:53;;;;;;;6.67;1.90;;;11.10;99.90;;;;;;5062108;28;20667;-54
2022/01/03 12:50:29;;;;;;;8.87;2.10;;;11.10;99.90;;;;;;5059843;28;20239;-53
2022/01/03 12:52:59;;;;;;;14.53;2.47;;;11.10;99.90;;;;;;5061967;28;20211;-53
2022/01/03 12:55:46;;;;;;;9.10;2.47;;;11.10;99.90;;;;;;5061563;28;20215;-54
2022/01/03 12:58:18;;;;;;;11.53;2.50;;;11.10;99.90;;;;;;5061135;28;20210;-52
2022/01/03 13:00:48;;;;;;;14.27;2.10;;;11.10;99.90;;;;;;5061199;28;20306;-53
2022/01/03 13:03:37;;;;;;;6.90;1.80;;;11.10;99.90;;;;;;5061369;28;20574;-54
2022/01/03 13:06:24;;;;;;;7.53;2.07;;;11.10;99.90;;;;;;5060281;28;20864;-52
2022/01/03 13:08:56;;;;;;;10.33;1.93;;;11.10;99.90;;;;;;5055355;28;20260;-53
2022/01/03 13:11:44;;;;;;;10.27;2.00;;;11.00;99.90;;;;;;5061319;28;20846;-56
2022/01/03 13:14:29;;;;;;;6.63;1.67;;;11.10;99.90;;;;;;5060539;28;20243;-53